createdAt,value
2023-01-11T00:01:07.535Z,3.30
2023-01-11T00:03:34.150Z,4.50
2023-01-11T00:06:00.925Z,4.30
2023-01-11T00:08:27.943Z,3.03
2023-01-11T00:10:55.202Z,2.25
2023-01-11T00:13:21.855Z,4.00
2023-01-11T00:15:48.462Z,4.10
2023-01-11T00:18:15.083Z,4.53
2023-01-11T00:20:41.961Z,4.32
2023-01-11T00:23:08.773Z,5.00
2023-01-11T00:25:35.935Z,4.55
2023-01-11T00:28:02.483Z,1.40
2023-01-11T00:30:29.065Z,5.05
2023-01-11T00:32:57.083Z,2.60
2023-01-11T00:35:23.679Z,3.85
2023-01-11T00:37:50.216Z,4.35
2023-01-11T00:40:17.279Z,3.42
2023-01-11T00:43:02.311Z,1.20
2023-01-11T00:45:47.315Z,2.83
2023-01-11T00:48:13.893Z,2.17
2023-01-11T00:50:41.080Z,2.30
2023-01-11T00:53:09.213Z,1.73
2023-01-11T00:58:02.775Z,1.27
2023-01-11T01:00:30.740Z,2.92
2023-01-11T01:02:57.417Z,2.97
2023-01-11T01:05:24.529Z,1.95
2023-01-11T01:07:51.095Z,3.50
2023-01-11T01:10:18.379Z,1.77
2023-01-11T01:13:04.016Z,1.80
2023-01-11T01:15:31.091Z,4.53
2023-01-11T01:17:57.659Z,2.55
2023-01-11T01:20:24.678Z,2.85
2023-01-11T01:22:51.467Z,2.60
2023-01-11T01:25:18.100Z,5.55
2023-01-11T01:27:44.648Z,3.25
2023-01-11T01:30:11.492Z,3.08
2023-01-11T01:32:38.037Z,3.13
2023-01-11T01:35:04.759Z,3.72
2023-01-11T01:37:31.300Z,2.92
2023-01-11T01:39:57.841Z,1.60
2023-01-11T01:42:24.522Z,1.42
2023-01-11T01:44:57.972Z,1.02
2023-01-11T01:47:26.486Z,3.00
2023-01-11T01:49:53.061Z,1.38
2023-01-11T01:52:19.598Z,1.67
2023-01-11T01:54:47.813Z,1.45
2023-01-11T01:57:21.611Z,3.65
2023-01-11T01:59:51.656Z,2.33
2023-01-11T02:02:20.491Z,3.65
2023-01-11T02:04:48.481Z,2.00
2023-01-11T02:07:18.000Z,2.40
2023-01-11T02:10:02.512Z,1.55
2023-01-11T02:12:50.942Z,1.60
2023-01-11T02:15:19.143Z,1.45
2023-01-11T02:17:45.702Z,1.77
2023-01-11T02:20:25.042Z,4.00
2023-01-11T02:23:23.759Z,1.90
2023-01-11T02:25:56.089Z,1.13
2023-01-11T02:28:34.971Z,2.90
2023-01-11T02:31:23.418Z,2.85
2023-01-11T02:34:01.967Z,2.53
2023-01-11T02:36:37.707Z,1.50
2023-01-11T02:39:30.218Z,0.90
2023-01-11T02:42:44.251Z,2.67
2023-01-11T02:45:25.432Z,1.00
2023-01-11T02:48:10.654Z,2.75
2023-01-11T02:50:49.864Z,2.45
2023-01-11T02:53:22.305Z,2.42
2023-01-11T02:55:52.055Z,6.47
2023-01-11T02:58:20.599Z,0.47
2023-01-11T03:00:47.436Z,1.92
2023-01-11T03:03:22.098Z,1.00
2023-01-11T03:05:52.480Z,0.90
2023-01-11T03:08:34.240Z,2.53
2023-01-11T03:11:04.060Z,2.67
2023-01-11T03:13:59.785Z,1.55
2023-01-11T03:16:31.249Z,1.02
2023-01-11T03:19:24.520Z,0.82
2023-01-11T03:21:57.425Z,1.80
2023-01-11T03:24:42.330Z,0.43
2023-01-11T03:27:22.867Z,2.42
2023-01-11T03:30:02.127Z,1.95
2023-01-11T03:32:45.830Z,3.47
2023-01-11T03:35:20.299Z,1.30
2023-01-11T03:40:22.309Z,0.55
2023-01-11T03:43:10.875Z,1.05
2023-01-11T03:45:43.396Z,0.50
2023-01-11T03:48:14.390Z,0.50
2023-01-11T03:50:41.747Z,1.52
2023-01-11T03:53:09.123Z,0.47
2023-01-11T03:55:39.768Z,0.35
2023-01-11T03:58:08.939Z,1.10
2023-01-11T04:00:36.300Z,0.50
2023-01-11T04:03:04.910Z,1.85
2023-01-11T04:05:31.848Z,0.22
2023-01-11T04:07:58.371Z,0.68
2023-01-11T04:10:24.945Z,1.67
2023-01-11T04:12:51.550Z,1.25
2023-01-11T04:15:18.110Z,1.45
2023-01-11T04:17:44.661Z,1.42
2023-01-11T04:20:12.315Z,2.20
2023-01-11T04:22:38.871Z,0.52
2023-01-11T04:25:05.860Z,2.30
2023-01-11T04:27:32.525Z,3.13
2023-01-11T04:29:59.127Z,2.15
2023-01-11T04:32:25.678Z,1.77
2023-01-11T04:34:52.222Z,2.55
2023-01-11T04:37:18.769Z,1.00
2023-01-11T04:39:45.300Z,0.90
2023-01-11T04:42:18.274Z,0.90
2023-01-11T04:44:48.939Z,0.55
2023-01-11T04:47:16.293Z,1.35
2023-01-11T04:49:43.449Z,1.80
2023-01-11T04:52:11.483Z,0.95
2023-01-11T04:54:38.459Z,0.98
2023-01-11T04:57:05.168Z,0.75
2023-01-11T04:59:31.755Z,2.15
2023-01-11T05:01:58.356Z,2.00
2023-01-11T05:04:24.953Z,0.30
2023-01-11T05:06:51.535Z,1.20
2023-01-11T05:09:18.650Z,1.20
2023-01-11T05:11:45.456Z,0.75
2023-01-11T05:14:12.013Z,1.33
2023-01-11T05:16:38.594Z,1.55
2023-01-11T05:19:06.209Z,2.53
2023-01-11T05:21:35.075Z,0.85
2023-01-11T05:24:03.482Z,1.65
2023-01-11T05:26:34.721Z,0.50
2023-01-11T05:29:04.284Z,1.95
2023-01-11T05:31:32.246Z,0.95
2023-01-11T05:33:59.444Z,0.77
2023-01-11T05:36:27.361Z,5.18
2023-01-11T05:38:55.143Z,1.75
2023-01-11T05:41:23.757Z,1.75
2023-01-11T05:44:09.837Z,2.90
2023-01-11T05:46:38.472Z,1.88
2023-01-11T05:49:06.006Z,2.72
2023-01-11T05:51:32.831Z,0.55
2023-01-11T05:54:01.400Z,1.13
2023-01-11T05:56:28.252Z,1.52
2023-01-11T05:58:55.112Z,0.93
2023-01-11T06:01:23.108Z,2.78
2023-01-11T06:03:49.760Z,1.38
2023-01-11T06:06:18.835Z,1.75
2023-01-11T06:11:12.018Z,1.13
2023-01-11T06:13:38.606Z,0.82
2023-01-11T06:16:08.127Z,2.25
2023-01-11T06:18:37.627Z,1.98
2023-01-11T06:21:04.818Z,1.67
2023-01-11T06:23:33.366Z,3.40
2023-01-11T06:26:08.990Z,1.92
2023-01-11T06:28:36.316Z,0.93
2023-01-11T06:31:03.403Z,1.40
2023-01-11T06:33:30.374Z,0.50
2023-01-11T06:35:57.336Z,1.13
2023-01-11T06:38:25.037Z,1.65
2023-01-11T06:41:00.405Z,0.82
2023-01-11T06:43:28.028Z,0.75
2023-01-11T06:45:54.907Z,1.00
2023-01-11T06:48:22.793Z,0.47
2023-01-11T06:50:58.761Z,0.47
2023-01-11T06:53:28.487Z,0.85
2023-01-11T06:55:57.165Z,1.05
2023-01-11T07:03:18.115Z,1.27
2023-01-11T07:05:45.025Z,1.92
2023-01-11T07:08:11.548Z,1.15
2023-01-11T07:10:38.149Z,1.88
2023-01-11T07:13:04.730Z,3.22
2023-01-11T07:15:31.591Z,4.07
2023-01-11T07:18:00.140Z,4.10
2023-01-11T07:20:27.369Z,1.13
2023-01-11T07:22:57.571Z,1.65
2023-01-11T07:25:24.601Z,1.05
2023-01-11T07:27:56.476Z,1.90
2023-01-11T07:30:23.257Z,3.72
2023-01-11T07:32:49.785Z,3.00
2023-01-11T07:35:16.341Z,4.47
2023-01-11T07:37:42.939Z,1.15
2023-01-11T07:40:10.272Z,2.72
2023-01-11T07:42:55.467Z,1.13
2023-01-11T07:45:22.072Z,1.48
2023-01-11T07:47:54.150Z,2.05
2023-01-11T07:50:21.018Z,0.98
2023-01-11T07:52:48.757Z,1.63
2023-01-11T07:55:16.177Z,2.63
2023-01-11T07:57:42.851Z,2.45
2023-01-11T08:00:10.268Z,0.93
2023-01-11T08:02:39.679Z,1.25
2023-01-11T08:05:06.751Z,2.20
2023-01-11T08:07:33.411Z,1.42
2023-01-11T08:09:59.917Z,1.55
2023-01-11T08:12:45.365Z,1.13
2023-01-11T08:15:14.119Z,2.05
2023-01-11T08:17:40.624Z,1.10
2023-01-11T08:20:07.270Z,2.97
2023-01-11T08:22:34.121Z,0.82
2023-01-11T08:25:00.667Z,0.95
2023-01-11T08:27:27.180Z,0.98
2023-01-11T08:29:53.679Z,1.02
2023-01-11T08:32:20.203Z,2.17
2023-01-11T08:34:46.799Z,1.48
2023-01-11T08:37:13.378Z,1.98
2023-01-11T08:39:40.460Z,1.33
2023-01-11T08:42:07.010Z,1.20
2023-01-11T08:44:34.635Z,0.98
2023-01-11T08:47:02.644Z,1.02
2023-01-11T08:49:30.468Z,1.25
2023-01-11T08:51:57.077Z,1.77
2023-01-11T08:54:23.757Z,1.52
2023-01-11T08:56:50.305Z,0.98
2023-01-11T08:59:17.200Z,1.05
2023-01-11T09:01:43.772Z,2.55
2023-01-11T09:04:23.798Z,2.67
2023-01-11T09:06:52.044Z,2.53
2023-01-11T09:09:18.739Z,3.20
2023-01-11T09:11:54.430Z,1.13
2023-01-11T09:14:21.822Z,2.25
2023-01-11T09:16:48.914Z,1.25
2023-01-11T09:19:15.787Z,1.17
2023-01-11T09:21:42.574Z,1.45
2023-01-11T09:24:09.215Z,1.13
2023-01-11T09:26:36.002Z,0.98
2023-01-11T09:29:02.723Z,1.40
2023-01-11T09:31:29.317Z,1.55
2023-01-11T09:33:56.260Z,0.98
2023-01-11T09:36:25.028Z,1.52
2023-01-11T09:38:52.995Z,1.75
2023-01-11T09:44:01.699Z,1.77
2023-01-11T09:46:28.900Z,1.98
2023-01-11T09:49:03.321Z,0.82
2023-01-11T09:54:01.977Z,1.15
2023-01-11T09:56:35.263Z,2.10
2023-01-11T09:59:05.730Z,1.98
2023-01-11T10:01:50.083Z,2.38
2023-01-11T10:04:40.861Z,2.45
2023-01-11T10:07:23.604Z,2.08
2023-01-11T10:18:39.057Z,1.08
2023-01-11T10:19:48.119Z,1.10
2023-01-11T10:22:23.743Z,1.42
2023-01-11T10:24:56.482Z,1.90
2023-01-11T10:27:30.915Z,1.92
2023-01-11T10:30:13.538Z,1.75
2023-01-11T10:32:47.956Z,1.05
2023-01-11T10:38:23.277Z,2.55
2023-01-11T10:41:14.744Z,5.28
2023-01-11T10:43:44.389Z,0.95
2023-01-11T10:46:15.677Z,2.63
2023-01-11T10:48:44.398Z,1.60
2023-01-11T10:51:27.813Z,2.17
2023-01-11T10:54:01.077Z,2.10
2023-01-11T10:57:02.846Z,3.45
2023-01-11T11:00:01.851Z,1.50
2023-01-11T11:02:56.341Z,4.63
2023-01-11T11:05:30.441Z,2.90
2023-01-11T11:08:14.661Z,2.20
2023-01-11T11:11:03.323Z,1.05
2023-01-11T11:13:51.525Z,1.33
2023-01-11T11:16:23.890Z,0.88
2023-01-11T11:18:51.579Z,2.35
2023-01-11T11:21:24.455Z,1.80
2023-01-11T11:24:16.450Z,1.38
2023-01-11T11:26:46.685Z,1.63
2023-01-11T11:29:21.265Z,1.30
2023-01-11T11:31:49.353Z,2.75
2023-01-11T11:34:21.378Z,1.55
2023-01-11T11:36:49.811Z,0.57
2023-01-11T11:39:27.291Z,1.55
2023-01-11T11:41:56.756Z,1.65
2023-01-11T11:44:28.166Z,0.65
2023-01-11T11:47:01.902Z,2.38
2023-01-11T11:49:33.034Z,0.90
2023-01-11T11:52:01.196Z,1.77
2023-01-11T11:54:32.605Z,0.43
2023-01-11T11:57:14.177Z,0.85
2023-01-11T11:59:45.605Z,1.63
2023-01-11T12:02:24.232Z,0.95
2023-01-11T12:04:51.320Z,0.95
2023-01-11T12:07:20.163Z,0.93
2023-01-11T12:09:57.425Z,2.60
2023-01-11T12:12:27.356Z,1.27
2023-01-11T12:15:14.570Z,1.80
2023-01-11T12:17:41.688Z,2.55
2023-01-11T12:20:27.436Z,1.08
2023-01-11T12:23:21.738Z,1.85
2023-01-11T12:26:16.370Z,1.45
2023-01-11T12:29:12.279Z,1.25
2023-01-11T12:31:50.857Z,1.75
2023-01-11T12:34:26.436Z,1.58
2023-01-11T12:37:03.357Z,1.52
2023-01-11T12:39:43.331Z,2.28
2023-01-11T12:42:57.105Z,2.33
2023-01-11T12:45:34.190Z,3.78
2023-01-11T12:48:00.618Z,0.85
2023-01-11T12:50:33.660Z,2.58
2023-01-11T12:53:31.370Z,1.85
2023-01-11T12:56:12.886Z,2.22
2023-01-11T12:58:49.883Z,3.45
2023-01-11T13:01:25.466Z,2.53
2023-01-11T13:03:58.441Z,1.90
2023-01-11T13:06:24.993Z,2.40
2023-01-11T13:09:03.504Z,4.28
2023-01-11T13:11:52.618Z,3.45
2023-01-11T13:14:53.307Z,1.85
2023-01-11T13:17:36.635Z,2.25
2023-01-11T13:20:29.127Z,3.60
2023-01-11T13:23:01.479Z,3.35
2023-01-11T13:25:30.256Z,3.08
2023-01-11T13:27:58.170Z,1.38
2023-01-11T13:30:25.496Z,2.88
2023-01-11T13:32:58.496Z,2.08
2023-01-11T13:35:34.688Z,1.70
2023-01-11T13:38:05.627Z,1.88
2023-01-11T13:40:36.165Z,2.13
2023-01-11T13:43:11.808Z,1.98
2023-01-11T13:45:50.484Z,2.72
2023-01-11T13:48:27.517Z,1.67
2023-01-11T13:51:15.650Z,2.63
2023-01-11T13:53:57.114Z,2.50
2023-01-11T13:56:43.356Z,1.92
2023-01-11T13:59:26.865Z,1.42
2023-01-11T14:02:09.148Z,1.20
2023-01-11T14:04:48.766Z,1.20
2023-01-11T14:07:52.899Z,2.83
2023-01-11T14:10:28.149Z,0.73
2023-01-11T14:13:45.079Z,0.95
2023-01-11T14:16:21.956Z,0.52
2023-01-11T14:18:57.850Z,0.85
2023-01-11T14:21:35.127Z,2.05
2023-01-11T14:24:03.351Z,1.10
2023-01-11T14:26:59.458Z,1.05
2023-01-11T14:29:51.062Z,1.33
2023-01-11T14:32:23.818Z,0.65
2023-01-11T14:35:07.191Z,0.98
2023-01-11T14:37:47.583Z,0.85
2023-01-11T14:40:20.353Z,1.85
2023-01-11T14:43:09.840Z,1.23
2023-01-11T14:45:49.422Z,0.60
2023-01-11T14:48:37.553Z,0.93
2023-01-11T14:51:23.791Z,1.55
2023-01-11T14:53:57.917Z,1.15
2023-01-11T14:56:46.550Z,0.68
2023-01-11T14:59:25.792Z,0.75
2023-01-11T15:02:04.722Z,0.65
2023-01-11T15:04:36.096Z,0.60
2023-01-11T15:07:22.548Z,1.20
2023-01-11T15:09:50.851Z,0.57
2023-01-11T15:12:37.870Z,3.25
2023-01-11T15:15:13.237Z,0.20
2023-01-11T15:17:59.341Z,0.85
2023-01-11T15:20:26.687Z,2.95
2023-01-11T15:23:04.147Z,2.10
2023-01-11T15:25:34.865Z,1.60
2023-01-11T15:28:05.134Z,3.33
2023-01-11T15:30:31.836Z,1.40
2023-01-11T15:33:17.215Z,0.80
2023-01-11T15:35:55.802Z,2.03
2023-01-11T15:38:26.070Z,1.20
2023-01-11T15:40:53.588Z,2.30
2023-01-11T15:43:45.645Z,0.82
2023-01-11T15:46:46.346Z,1.13
2023-01-11T15:49:19.013Z,3.38
2023-01-11T15:52:23.496Z,1.38
2023-01-11T15:55:29.709Z,0.95
2023-01-11T15:58:16.527Z,1.70
2023-01-11T16:01:08.043Z,1.23
2023-01-11T16:03:50.026Z,1.50
2023-01-11T16:06:30.271Z,2.75
2023-01-11T16:09:27.433Z,5.68
2023-01-11T16:12:07.248Z,0.73
2023-01-11T16:14:55.654Z,3.13
2023-01-11T16:17:23.469Z,4.28
2023-01-11T16:19:56.511Z,3.13
2023-01-11T16:22:27.727Z,6.22
2023-01-11T16:24:57.058Z,4.65
2023-01-11T16:27:33.236Z,2.13
2023-01-11T16:30:00.210Z,1.55
2023-01-11T16:32:32.542Z,2.70
2023-01-11T16:35:02.942Z,4.65
2023-01-11T16:37:49.265Z,3.60
2023-01-11T16:40:19.902Z,6.80
2023-01-11T16:42:57.425Z,4.10
2023-01-11T16:45:26.349Z,3.53
2023-01-11T16:48:07.164Z,3.67
2023-01-11T16:50:34.578Z,4.15
2023-01-11T16:53:04.013Z,1.35
2023-01-11T16:55:34.455Z,2.30
2023-01-11T16:58:03.858Z,0.98
2023-01-11T17:00:38.015Z,2.03
2023-01-11T17:03:19.954Z,2.60
2023-01-11T17:06:08.367Z,3.15
2023-01-11T17:08:37.155Z,4.93
2023-01-11T17:11:34.910Z,4.07
2023-01-11T17:14:08.095Z,6.95
2023-01-11T17:16:45.948Z,2.60
2023-01-11T17:19:21.282Z,4.07
2023-01-11T17:21:53.631Z,2.90
2023-01-11T17:24:25.996Z,6.30
2023-01-11T17:27:00.809Z,7.78
2023-01-11T17:29:39.237Z,8.82
2023-01-11T17:32:08.141Z,8.60
2023-01-11T17:34:36.454Z,13.18
2023-01-11T17:37:10.388Z,3.75
2023-01-11T17:39:44.670Z,3.15
2023-01-11T17:42:32.520Z,5.68
2023-01-11T17:45:13.236Z,10.55
2023-01-11T17:47:41.778Z,5.65
2023-01-11T17:50:29.784Z,6.18
2023-01-11T17:53:14.122Z,5.82
2023-01-11T17:55:51.582Z,1.60
2023-01-11T17:58:31.873Z,9.05
2023-01-11T18:01:04.845Z,2.20
2023-01-11T18:03:40.015Z,1.80
2023-01-11T18:06:15.387Z,5.03
2023-01-11T18:08:47.152Z,2.67
2023-01-11T18:11:22.276Z,1.50
2023-01-11T18:13:51.603Z,3.70
2023-01-11T18:16:19.609Z,2.20
2023-01-11T18:18:48.706Z,1.90
2023-01-11T18:21:41.537Z,1.08
2023-01-11T18:24:11.014Z,4.68
2023-01-11T18:26:40.028Z,3.03
2023-01-11T18:29:38.380Z,2.22
2023-01-11T18:32:05.850Z,5.88
2023-01-11T18:34:32.455Z,3.95
2023-01-11T18:37:00.182Z,4.22
2023-01-11T18:39:26.840Z,5.13
2023-01-11T18:42:09.000Z,5.05
2023-01-11T18:44:37.213Z,1.40
2023-01-11T18:49:50.881Z,4.70
2023-01-11T18:52:18.967Z,4.03
2023-01-11T18:54:45.904Z,3.35
2023-01-11T18:57:12.476Z,3.80
2023-01-11T18:59:39.603Z,3.53
2023-01-11T19:02:17.899Z,3.78
2023-01-11T19:04:44.643Z,3.92
2023-01-11T19:07:11.541Z,4.30
2023-01-11T19:09:38.133Z,7.80
2023-01-11T19:12:04.886Z,4.70
2023-01-11T19:14:31.492Z,3.67
2023-01-11T19:16:58.032Z,5.70
2023-01-11T19:19:24.650Z,6.88
2023-01-11T19:21:51.234Z,5.38
2023-01-11T19:24:17.783Z,7.55
2023-01-11T19:26:44.387Z,5.80
2023-01-11T19:29:16.418Z,9.90
2023-01-11T19:31:46.506Z,11.18
2023-01-11T19:34:13.700Z,5.57
2023-01-11T19:36:40.715Z,4.75
2023-01-11T19:39:08.518Z,8.27
2023-01-11T19:41:54.173Z,8.73
2023-01-11T19:44:21.893Z,10.00
2023-01-11T19:46:56.698Z,6.25
2023-01-11T19:49:27.002Z,10.02
2023-01-11T19:51:53.846Z,8.30
2023-01-11T19:54:21.555Z,6.25
2023-01-11T19:56:51.492Z,6.80
2023-01-11T19:59:18.701Z,6.10
2023-01-11T20:01:46.538Z,8.50
2023-01-11T20:04:15.268Z,9.93
2023-01-11T20:06:49.944Z,8.45
2023-01-11T20:11:44.507Z,6.97
2023-01-11T20:14:11.281Z,5.38
2023-01-11T20:16:37.922Z,5.90
2023-01-11T20:19:04.566Z,3.35
2023-01-11T20:21:33.974Z,5.72
2023-01-11T20:24:01.978Z,4.80
2023-01-11T20:26:30.704Z,8.55
2023-01-11T20:28:58.074Z,4.43
2023-01-11T20:31:28.151Z,8.80
2023-01-11T20:33:55.603Z,4.90
2023-01-11T20:36:23.482Z,6.45
2023-01-11T20:38:50.297Z,5.22
2023-01-11T20:41:38.208Z,6.85
2023-01-11T20:44:06.216Z,4.00
2023-01-11T20:46:33.902Z,4.32
2023-01-11T20:49:00.806Z,5.10
2023-01-11T20:51:27.467Z,7.93
2023-01-11T20:53:53.996Z,3.65
2023-01-11T20:56:20.721Z,4.72
2023-01-11T20:58:48.510Z,4.63
2023-01-11T21:01:25.935Z,6.25
2023-01-11T21:03:58.117Z,2.83
2023-01-11T21:06:24.685Z,6.38
2023-01-11T21:08:58.394Z,9.20
2023-01-11T21:11:27.062Z,4.65
2023-01-11T21:13:59.181Z,3.25
2023-01-11T21:16:27.932Z,5.22
2023-01-11T21:19:02.489Z,4.60
2023-01-11T21:21:30.884Z,4.90
2023-01-11T21:23:59.620Z,6.68
2023-01-11T21:26:27.167Z,5.07
2023-01-11T21:28:56.071Z,7.22
2023-01-11T21:31:22.774Z,11.23
2023-01-11T21:33:50.201Z,4.65
2023-01-11T21:36:20.278Z,3.38
2023-01-11T21:38:47.459Z,7.43
2023-01-11T21:41:17.015Z,4.55
2023-01-11T21:43:44.801Z,4.00
2023-01-11T21:46:12.786Z,7.63
2023-01-11T21:48:39.464Z,5.75
2023-01-11T21:51:11.681Z,5.32
2023-01-11T21:53:38.294Z,3.15
2023-01-11T21:56:07.689Z,6.20
2023-01-11T21:58:34.590Z,4.65
2023-01-11T22:01:10.097Z,7.10
2023-01-11T22:03:36.777Z,4.20
2023-01-11T22:06:03.803Z,7.28
2023-01-11T22:08:34.614Z,17.52
2023-01-11T22:11:02.639Z,7.50
2023-01-11T22:13:30.313Z,6.97
2023-01-11T22:16:10.430Z,3.88
2023-01-11T22:18:37.066Z,5.55
2023-01-11T22:21:13.832Z,3.63
2023-01-11T22:23:40.780Z,3.30
2023-01-11T22:26:10.041Z,4.20
2023-01-11T22:28:56.556Z,5.50
2023-01-11T22:31:23.938Z,3.35
2023-01-11T22:33:50.973Z,4.25
2023-01-11T22:36:17.933Z,5.88
2023-01-11T22:38:44.542Z,4.05
2023-01-11T22:41:11.052Z,3.33
2023-01-11T22:43:37.878Z,7.38
2023-01-11T22:46:04.641Z,5.50
2023-01-11T22:48:31.579Z,3.22
2023-01-11T22:50:58.493Z,1.73
2023-01-11T22:53:25.202Z,2.40
2023-01-11T22:55:51.749Z,7.68
2023-01-11T22:58:18.320Z,6.55
2023-01-11T23:00:48.064Z,2.90
2023-01-11T23:03:15.769Z,8.73
2023-01-11T23:05:46.359Z,3.78
2023-01-11T23:08:13.889Z,5.32
2023-01-11T23:10:40.792Z,6.22
2023-01-11T23:13:29.320Z,3.47
2023-01-11T23:15:55.850Z,2.05
2023-01-11T23:18:22.705Z,1.80
2023-01-11T23:20:49.306Z,5.75
2023-01-11T23:23:15.919Z,2.20
2023-01-11T23:25:42.416Z,7.07
2023-01-11T23:28:08.972Z,1.38
2023-01-11T23:30:36.845Z,8.88
2023-01-11T23:33:03.418Z,1.30
2023-01-11T23:35:29.934Z,4.57
2023-01-11T23:37:56.524Z,1.30
2023-01-11T23:40:23.055Z,4.70
2023-01-11T23:42:49.672Z,2.35
2023-01-11T23:45:16.424Z,2.40
2023-01-11T23:47:42.965Z,2.58
2023-01-11T23:50:09.803Z,1.55
2023-01-11T23:52:36.389Z,3.30
2023-01-11T23:55:02.966Z,3.78
2023-01-11T23:57:29.512Z,6.15
2023-01-11T23:59:56.036Z,2.92
